Time;durP1;ratioP1;P1;durP2;ratioP2;P2;SDS_P1;SDS_P2;PMS_P1;PMS_P2;Temp;Humidity;BMP_temperature;BMP_pressure;BME280_temperature;BME280_humidity;BME280_pressure;Samples;Min_cycle;Max_cycle;Signal;HPM_P1;HPM_P2
2023/10/08 00:01:08;;;;;;;0.20;0.20;;;14.90;99.90;;;;;;5070329;28;20138;-75
2023/10/08 00:03:57;;;;;;;0.20;0.10;;;14.70;99.90;;;;;;5080009;28;20495;-75
2023/10/08 00:06:45;;;;;;;0.30;0.30;;;14.80;99.90;;;;;;5080556;28;20115;-75
2023/10/08 00:09:35;;;;;;;0.87;0.40;;;14.60;99.90;;;;;;5091366;28;20046;-75
2023/10/08 00:12:21;;;;;;;0.85;0.50;;;14.50;99.90;;;;;;5061337;28;20663;-75
2023/10/08 00:15:10;;;;;;;0.68;0.40;;;14.60;99.90;;;;;;5077181;28;20043;-75
2023/10/08 00:17:58;;;;;;;0.57;0.32;;;14.60;99.90;;;;;;5066083;28;20048;-75
2023/10/08 00:20:54;;;;;;;0.82;0.45;;;14.60;99.90;;;;;;5075413;28;20036;-75
2023/10/08 00:23:43;;;;;;;0.93;0.52;;;14.60;99.90;;;;;;5093150;28;20023;-75
2023/10/08 00:26:39;;;;;;;0.77;0.43;;;14.50;99.90;;;;;;5082152;28;20031;-75
2023/10/08 00:29:26;;;;;;;1.08;0.40;;;14.20;99.90;;;;;;5110253;28;20070;-75
2023/10/08 00:32:12;;;;;;;0.63;0.35;;;14.10;99.90;;;;;;5086775;28;20036;-75
2023/10/08 00:34:58;;;;;;;0.20;0.20;;;14.00;99.90;;;;;;5089522;28;20042;-75
2023/10/08 00:37:45;;;;;;;0.50;0.28;;;14.00;99.90;;;;;;5080681;28;20391;-75
2023/10/08 00:40:39;;;;;;;1.65;0.43;;;14.10;99.90;;;;;;5086970;28;20062;-75
2023/10/08 00:43:35;;;;;;;0.55;0.40;;;14.20;99.90;;;;;;5078795;28;20032;-75
2023/10/08 00:57:42;;;;;;;0.05;0.05;;;13.70;99.90;;;;;;5059982;28;20058;-75
2023/10/08 01:00:33;;;;;;;0.05;0.05;;;13.60;99.90;;;;;;5040605;28;20473;-76
2023/10/08 01:03:19;;;;;;;0.10;0.10;;;13.60;99.90;;;;;;5043425;28;20049;-75
2023/10/08 01:06:09;;;;;;;0.75;0.15;;;13.40;99.90;;;;;;5058798;28;20037;-75
2023/10/08 01:08:57;;;;;;;0.10;0.10;;;13.30;99.90;;;;;;5050398;28;20468;-76
2023/10/08 01:11:49;;;;;;;0.10;0.10;;;13.30;99.90;;;;;;5065326;28;20545;-75
2023/10/08 01:14:35;;;;;;;3.15;0.20;;;13.20;99.90;;;;;;5064124;28;20041;-75
2023/10/08 01:17:25;;;;;;;1.13;0.32;;;13.00;99.90;;;;;;5051579;28;20074;-75
2023/10/08 01:20:32;;;;;;;3.75;0.85;;;13.00;99.90;;;;;;5039485;28;20036;-75
2023/10/08 01:23:22;;;;;;;3.72;0.95;;;12.90;99.90;;;;;;5058417;28;20070;-75
2023/10/08 01:26:12;;;;;;;6.22;1.65;;;12.70;99.90;;;;;;5065178;28;20123;-75
2023/10/08 01:29:02;;;;;;;5.38;1.70;;;12.70;99.90;;;;;;5047663;28;20041;-75
2023/10/08 01:31:49;;;;;;;5.10;1.00;;;12.70;99.90;;;;;;5069349;28;20507;-75
2023/10/08 01:34:36;;;;;;;5.35;1.25;;;12.70;99.90;;;;;;5045696;28;20077;-76
2023/10/08 01:37:22;;;;;;;3.13;0.90;;;12.70;99.90;;;;;;5072059;28;20060;-76
2023/10/08 01:40:09;;;;;;;5.18;1.45;;;12.70;99.90;;;;;;5053672;28;20033;-75
2023/10/08 01:43:04;;;;;;;6.97;1.20;;;12.80;99.90;;;;;;5046540;28;20362;-75
2023/10/08 01:45:51;;;;;;;8.68;1.20;;;12.80;99.90;;;;;;5057016;28;20052;-76
2023/10/08 01:48:39;;;;;;;4.30;1.30;;;12.80;99.90;;;;;;5061149;28;20048;-76
2023/10/08 01:51:28;;;;;;;7.57;1.17;;;12.80;99.90;;;;;;5039059;28;20043;-76
2023/10/08 01:54:17;;;;;;;7.28;1.30;;;12.80;99.90;;;;;;5070255;28;20128;-76
2023/10/08 01:57:04;;;;;;;7.60;1.48;;;12.80;99.90;;;;;;5046307;28;20041;-76
2023/10/08 01:59:50;;;;;;;4.38;1.05;;;12.80;99.90;;;;;;5068504;28;20398;-76
2023/10/08 02:02:36;;;;;;;6.13;1.40;;;12.70;99.90;;;;;;5059609;28;20040;-76
2023/10/08 02:05:23;;;;;;;6.65;1.20;;;12.70;99.90;;;;;;5069507;28;20498;-76
2023/10/08 02:08:10;;;;;;;6.53;1.52;;;12.70;99.90;;;;;;5070195;28;20041;-75
2023/10/08 02:10:56;;;;;;;3.38;1.10;;;12.70;99.90;;;;;;5052401;28;20038;-76
2023/10/08 02:13:42;;;;;;;6.80;1.38;;;12.70;99.90;;;;;;5067185;28;20087;-76
2023/10/08 02:16:28;;;;;;;7.50;1.35;;;12.60;99.90;;;;;;5064353;28;20068;-78
2023/10/08 02:19:18;;;;;;;6.55;1.70;;;12.60;99.90;;;;;;5051029;28;20040;-78
2023/10/08 02:22:09;;;;;;;4.95;1.00;;;12.60;99.90;;;;;;5041484;28;20032;-78
2023/10/08 02:25:01;;;;;;;3.63;0.88;;;12.60;99.90;;;;;;5043494;28;20075;-78
2023/10/08 02:27:48;;;;;;;6.95;1.35;;;12.50;99.90;;;;;;5069688;28;20056;-77
2023/10/08 02:30:36;;;;;;;4.45;1.05;;;12.60;99.90;;;;;;5068946;28;20047;-78
2023/10/08 02:33:22;;;;;;;8.68;1.77;;;12.60;99.90;;;;;;5059097;28;20051;-78
2023/10/08 02:36:09;;;;;;;6.88;1.33;;;12.50;99.90;;;;;;5044081;28;20381;-78
2023/10/08 02:38:55;;;;;;;5.75;1.25;;;12.60;99.90;;;;;;5057277;28;20079;-78
2023/10/08 02:41:42;;;;;;;5.43;1.23;;;12.50;99.90;;;;;;5056989;28;20485;-78
2023/10/08 02:44:28;;;;;;;5.60;1.48;;;12.40;99.90;;;;;;5045305;28;20040;-77
2023/10/08 02:47:16;;;;;;;5.22;1.52;;;12.40;99.90;;;;;;5065312;28;20090;-77
2023/10/08 02:50:07;;;;;;;5.07;1.13;;;12.40;99.90;;;;;;5076652;28;20086;-77
2023/10/08 02:52:53;;;;;;;3.70;1.27;;;12.50;99.90;;;;;;5062316;28;20356;-78
2023/10/08 02:55:43;;;;;;;4.68;1.45;;;12.50;99.90;;;;;;5068853;28;20054;-78
2023/10/08 02:58:30;;;;;;;7.68;1.10;;;12.60;99.90;;;;;;5073299;28;20087;-78
2023/10/08 03:01:16;;;;;;;6.18;1.42;;;12.50;99.90;;;;;;5059603;28;20429;-78
2023/10/08 03:04:09;;;;;;;6.85;1.20;;;12.50;99.90;;;;;;5074709;28;20036;-78
2023/10/08 03:06:55;;;;;;;7.32;1.17;;;12.50;99.90;;;;;;5073411;28;20472;-76
2023/10/08 03:09:42;;;;;;;2.92;1.00;;;12.50;99.90;;;;;;5077671;28;20048;-77
2023/10/08 03:12:31;;;;;;;5.07;1.00;;;12.50;99.90;;;;;;5074205;28;20047;-78
2023/10/08 03:15:28;;;;;;;10.05;1.40;;;12.50;99.90;;;;;;5049492;28;20059;-78
2023/10/08 03:18:16;;;;;;;6.88;1.55;;;12.60;99.90;;;;;;5075211;28;20043;-78
2023/10/08 03:21:19;;;;;;;7.30;1.30;;;12.40;99.90;;;;;;5062263;28;20043;-77
2023/10/08 03:24:23;;;;;;;5.53;1.30;;;12.40;99.90;;;;;;5068313;28;20051;-77
2023/10/08 03:27:15;;;;;;;4.40;1.10;;;12.30;99.90;;;;;;5076062;28;20383;-77
2023/10/08 03:30:01;;;;;;;6.75;1.17;;;12.20;99.90;;;;;;5080338;28;20040;-77
2023/10/08 03:32:55;;;;;;;6.03;1.40;;;12.30;99.90;;;;;;5072962;28;20062;-77
2023/10/08 03:35:43;;;;;;;4.82;1.02;;;12.40;99.90;;;;;;5069680;28;20123;-77
2023/10/08 03:38:44;;;;;;;6.80;1.13;;;12.40;99.90;;;;;;5048619;28;20498;-77
2023/10/08 03:41:30;;;;;;;5.85;1.17;;;12.40;99.90;;;;;;5074360;28;20028;-77
2023/10/08 03:44:16;;;;;;;6.25;1.48;;;12.40;99.90;;;;;;5084541;28;20036;-77
2023/10/08 03:47:10;;;;;;;5.45;1.30;;;12.50;99.90;;;;;;5077798;28;20626;-77
2023/10/08 03:49:56;;;;;;;7.32;1.88;;;12.50;99.90;;;;;;5076665;28;20036;-78
2023/10/08 03:52:44;;;;;;;7.03;1.17;;;12.50;99.90;;;;;;5068413;28;20044;-78
2023/10/08 03:55:35;;;;;;;9.65;1.80;;;12.60;99.90;;;;;;5086916;28;20043;-77
2023/10/08 03:58:31;;;;;;;7.47;1.38;;;12.50;99.90;;;;;;5087458;28;20062;-77
2023/10/08 04:01:20;;;;;;;4.82;1.15;;;12.60;99.90;;;;;;5077491;28;20039;-77
2023/10/08 04:04:12;;;;;;;6.22;1.40;;;12.60;99.90;;;;;;5059586;28;20048;-77
2023/10/08 04:07:24;;;;;;;7.75;1.17;;;12.60;99.90;;;;;;5065383;28;20602;-77
2023/10/08 04:12:57;;;;;;;5.45;1.13;;;12.70;99.90;;;;;;5087973;28;20081;-77
2023/10/08 04:15:43;;;;;;;7.30;1.30;;;12.60;99.90;;;;;;5083111;28;20094;-78
2023/10/08 04:18:29;;;;;;;5.28;1.35;;;12.60;99.90;;;;;;5077237;28;20301;-77
2023/10/08 04:21:18;;;;;;;7.05;1.20;;;12.60;99.90;;;;;;5074312;28;20118;-77
2023/10/08 04:24:05;;;;;;;7.25;1.00;;;12.60;99.90;;;;;;5077824;28;20047;-78
2023/10/08 04:26:51;;;;;;;5.88;1.40;;;12.60;99.90;;;;;;5084442;28;20349;-78
2023/10/08 04:29:37;;;;;;;5.82;1.20;;;12.60;99.90;;;;;;5069016;28;20047;-78
2023/10/08 04:32:24;;;;;;;8.48;1.77;;;12.60;99.90;;;;;;5065453;28;20066;-78
2023/10/08 04:35:15;;;;;;;8.13;1.40;;;12.50;99.90;;;;;;5076859;28;20454;-78
2023/10/08 04:38:02;;;;;;;5.28;1.42;;;12.50;99.90;;;;;;5070309;28;20361;-77
2023/10/08 04:40:50;;;;;;;7.35;1.20;;;12.40;99.90;;;;;;5067894;28;20361;-78
2023/10/08 04:43:37;;;;;;;6.05;1.30;;;12.40;99.90;;;;;;5070293;28;20036;-78
2023/10/08 04:49:30;;;;;;;5.85;1.20;;;12.40;99.90;;;;;;5050435;28;20041;-77
2023/10/08 04:52:18;;;;;;;4.50;1.65;;;12.40;99.90;;;;;;5072038;28;20465;-78
2023/10/08 04:55:15;;;;;;;8.10;1.70;;;12.30;99.90;;;;;;5056398;28;20040;-78
2023/10/08 04:58:12;;;;;;;4.50;1.48;;;12.30;99.90;;;;;;5069043;28;20122;-78
2023/10/08 05:00:59;;;;;;;4.85;1.10;;;12.30;99.90;;;;;;5056078;28;20457;-78
2023/10/08 05:09:47;;;;;;;5.00;1.48;;;12.20;99.90;;;;;;5052369;28;20044;-78
2023/10/08 05:15:47;;;;;;;6.18;1.80;;;12.30;99.90;;;;;;5043470;28;20147;-76
2023/10/08 05:21:51;;;;;;;5.35;1.65;;;12.20;99.90;;;;;;5055858;28;20052;-75
2023/10/08 05:24:40;;;;;;;8.85;1.70;;;12.20;99.90;;;;;;5068241;28;20051;-75
2023/10/08 05:27:37;;;;;;;5.57;1.50;;;12.10;99.90;;;;;;5049305;28;20433;-75
2023/10/08 05:30:38;;;;;;;5.47;1.30;;;12.20;99.90;;;;;;5056582;28;20040;-75
2023/10/08 05:36:17;;;;;;;5.95;1.45;;;12.10;99.90;;;;;;5067825;28;20040;-75
2023/10/08 05:39:29;;;;;;;8.75;1.80;;;12.20;99.90;;;;;;5050243;28;20048;-75
2023/10/08 05:42:13;;;;;;;7.15;1.30;;;12.20;99.90;;;;;;5068035;28;20059;-75
2023/10/08 05:51:13;;;;;;;4.38;1.35;;;12.10;99.90;;;;;;5094243;28;20047;-75
2023/10/08 05:54:10;;;;;;;4.05;1.33;;;12.20;99.90;;;;;;5096162;28;20051;-75
2023/10/08 05:57:14;;;;;;;4.32;1.27;;;12.20;99.90;;;;;;5087469;28;20369;-75
2023/10/08 06:05:43;;;;;;;6.90;1.40;;;12.20;99.90;;;;;;5094515;28;20357;-74
2023/10/08 06:08:48;;;;;;;5.20;1.38;;;12.20;99.90;;;;;;5065362;28;20052;-74
2023/10/08 06:17:55;;;;;;;6.25;1.65;;;12.20;99.90;;;;;;5092980;28;20043;-75
2023/10/08 06:20:44;;;;;;;4.25;1.30;;;12.20;99.90;;;;;;5086046;28;20559;-75
2023/10/08 06:23:32;;;;;;;6.88;1.30;;;12.20;99.90;;;;;;5069546;28;20050;-75
2023/10/08 06:26:21;;;;;;;5.37;1.27;;;12.10;99.90;;;;;;5080702;28;20099;-75
2023/10/08 06:29:18;;;;;;;8.10;1.70;;;12.30;99.90;;;;;;5094589;28;20329;-75
2023/10/08 06:32:04;;;;;;;4.93;1.30;;;12.20;99.90;;;;;;5100424;28;20044;-75
2023/10/08 06:34:50;;;;;;;9.32;1.67;;;12.30;99.90;;;;;;5099920;28;20052;-75
2023/10/08 06:37:38;;;;;;;9.02;1.95;;;12.30;99.90;;;;;;5079769;28;20043;-75
2023/10/08 06:43:28;;;;;;;6.10;1.45;;;12.20;99.90;;;;;;5098537;28;20039;-75
2023/10/08 06:46:14;;;;;;;5.85;1.27;;;12.30;99.90;;;;;;5085514;28;20140;-75
2023/10/08 06:49:01;;;;;;;7.28;1.38;;;12.20;99.90;;;;;;5055270;28;20044;-76
2023/10/08 06:51:48;;;;;;;11.00;1.48;;;12.30;99.90;;;;;;5073081;28;20505;-75
2023/10/08 06:54:35;;;;;;;7.82;1.60;;;12.30;99.90;;;;;;5073375;28;20043;-75
2023/10/08 06:57:21;;;;;;;6.53;1.30;;;12.30;99.90;;;;;;5087538;28;20040;-76
2023/10/08 07:00:12;;;;;;;4.47;1.45;;;12.40;99.90;;;;;;5066045;28;20040;-75
2023/10/08 07:02:58;;;;;;;6.00;1.50;;;12.40;99.90;;;;;;5050250;28;20028;-75
2023/10/08 07:05:53;;;;;;;6.90;1.60;;;12.40;99.90;;;;;;5078501;28;20040;-75
2023/10/08 07:08:42;;;;;;;7.50;1.67;;;12.40;99.90;;;;;;5074394;28;20447;-75
2023/10/08 07:11:28;;;;;;;4.47;1.48;;;12.40;99.90;;;;;;5072799;28;20463;-75
2023/10/08 07:14:14;;;;;;;11.13;1.75;;;12.40;99.90;;;;;;5073122;28;20036;-75
2023/10/08 07:17:01;;;;;;;7.97;1.55;;;12.40;99.90;;;;;;5088427;28;20104;-75
2023/10/08 07:19:50;;;;;;;4.07;1.33;;;12.40;99.90;;;;;;5064680;28;20043;-75
2023/10/08 07:22:38;;;;;;;8.30;2.25;;;12.30;99.90;;;;;;5072953;28;20047;-75
2023/10/08 07:25:25;;;;;;;4.50;1.98;;;12.30;99.90;;;;;;5070432;28;20040;-75
2023/10/08 07:28:12;;;;;;;5.30;1.50;;;12.40;99.90;;;;;;5085987;28;20434;-75
2023/10/08 07:30:58;;;;;;;6.07;1.55;;;12.50;99.90;;;;;;5068720;28;20071;-75
2023/10/08 07:33:45;;;;;;;11.75;2.38;;;12.50;99.90;;;;;;5074315;28;20478;-75
2023/10/08 07:36:31;;;;;;;6.03;1.63;;;12.50;99.90;;;;;;5072631;28;20037;-75
2023/10/08 07:39:35;;;;;;;7.43;1.73;;;12.50;99.90;;;;;;5077870;28;20136;-75
2023/10/08 07:42:21;;;;;;;8.25;1.60;;;12.60;99.90;;;;;;5077326;28;20035;-75
2023/10/08 07:45:08;;;;;;;7.03;1.55;;;12.60;99.90;;;;;;5092255;28;20040;-75
2023/10/08 07:47:55;;;;;;;5.25;1.60;;;12.70;99.90;;;;;;5081415;28;20035;-75
2023/10/08 07:50:50;;;;;;;8.95;1.38;;;12.80;99.90;;;;;;5071992;28;20046;-75
2023/10/08 07:53:41;;;;;;;5.00;1.55;;;12.80;99.90;;;;;;5081769;28;20341;-75
2023/10/08 07:56:27;;;;;;;24.67;2.10;;;12.70;99.90;;;;;;5068513;28;20036;-75
2023/10/08 07:59:16;;;;;;;5.70;1.45;;;12.80;99.90;;;;;;5102513;28;20167;-75
2023/10/08 08:02:09;;;;;;;4.38;1.30;;;12.90;99.90;;;;;;5081560;28;20471;-76
2023/10/08 08:04:56;;;;;;;5.38;1.20;;;12.90;99.90;;;;;;5081195;28;20050;-75
2023/10/08 08:07:45;;;;;;;7.75;1.52;;;12.90;99.90;;;;;;5093900;28;20050;-73
2023/10/08 08:10:38;;;;;;;5.38;1.23;;;12.90;99.90;;;;;;5065021;28;20040;-75
2023/10/08 08:13:27;;;;;;;3.38;1.33;;;13.00;99.90;;;;;;5081426;28;20058;-74
2023/10/08 08:16:17;;;;;;;5.47;1.40;;;13.00;99.90;;;;;;5074640;28;20050;-74
2023/10/08 08:19:03;;;;;;;10.48;1.88;;;13.00;99.90;;;;;;5080717;28;20379;-74
2023/10/08 08:21:49;;;;;;;7.38;1.48;;;13.00;99.90;;;;;;5080661;28;20523;-74
2023/10/08 08:24:36;;;;;;;5.82;1.25;;;13.10;99.90;;;;;;5083211;28;20360;-75
2023/10/08 08:27:23;;;;;;;5.78;1.25;;;13.10;99.90;;;;;;5092983;28;20047;-76
2023/10/08 08:30:10;;;;;;;5.70;1.50;;;13.20;99.90;;;;;;5081736;28;20047;-76
2023/10/08 08:32:58;;;;;;;6.85;1.20;;;13.20;99.90;;;;;;5078465;28;20043;-76
2023/10/08 08:35:45;;;;;;;12.50;1.20;;;13.20;99.90;;;;;;5086213;28;20126;-76
2023/10/08 08:38:32;;;;;;;8.68;1.90;;;13.30;99.90;;;;;;5065229;28;20491;-76
2023/10/08 08:41:18;;;;;;;4.20;1.20;;;13.30;99.90;;;;;;5084354;28;20515;-76
2023/10/08 08:44:06;;;;;;;4.43;1.17;;;13.30;99.90;;;;;;5072778;28;20044;-76
2023/10/08 08:46:53;;;;;;;5.88;2.00;;;13.30;99.90;;;;;;5072130;28;20059;-77
2023/10/08 08:49:39;;;;;;;6.82;1.27;;;13.30;99.90;;;;;;5073016;28;20130;-76
2023/10/08 08:52:26;;;;;;;6.00;1.10;;;13.40;99.90;;;;;;5077497;28;20032;-76
2023/10/08 08:55:16;;;;;;;7.53;1.20;;;13.50;99.90;;;;;;5108413;28;20389;-76
2023/10/08 08:58:05;;;;;;;5.20;1.50;;;13.60;99.90;;;;;;5070074;28;20051;-76
2023/10/08 09:00:52;;;;;;;6.38;1.55;;;13.60;99.90;;;;;;5080526;28;20036;-76
2023/10/08 09:03:39;;;;;;;5.95;1.42;;;13.60;99.90;;;;;;5069843;28;20369;-76
2023/10/08 09:06:25;;;;;;;11.40;2.03;;;13.60;99.90;;;;;;5074776;28;20097;-77
2023/10/08 09:09:21;;;;;;;5.28;1.40;;;13.60;99.90;;;;;;5084808;28;20363;-77
2023/10/08 09:12:10;;;;;;;6.38;1.30;;;13.70;99.90;;;;;;5094499;28;20108;-77
2023/10/08 09:15:02;;;;;;;6.40;1.25;;;13.70;99.90;;;;;;5066308;28;20043;-74
2023/10/08 09:17:49;;;;;;;6.22;1.50;;;13.70;99.90;;;;;;5092405;28;20040;-74
2023/10/08 09:20:42;;;;;;;5.18;1.50;;;13.60;99.90;;;;;;5083363;28;20050;-74
2023/10/08 09:23:28;;;;;;;6.15;1.45;;;13.70;99.90;;;;;;5085416;28;20036;-74
2023/10/08 09:26:16;;;;;;;5.53;1.50;;;13.80;99.90;;;;;;5080543;28;20036;-75
2023/10/08 09:29:07;;;;;;;9.10;1.75;;;13.80;99.90;;;;;;5076671;28;20039;-74
2023/10/08 09:31:58;;;;;;;6.25;1.25;;;14.00;99.90;;;;;;5065549;28;20084;-74
2023/10/08 09:34:44;;;;;;;5.07;1.35;;;14.10;99.90;;;;;;5078861;28;20047;-73
2023/10/08 09:37:30;;;;;;;7.53;1.55;;;14.20;99.90;;;;;;5086747;28;20071;-74
2023/10/08 09:40:20;;;;;;;4.70;1.20;;;14.10;99.90;;;;;;5087504;28;20072;-74
2023/10/08 09:43:08;;;;;;;6.30;1.40;;;14.20;99.90;;;;;;5066877;28;20064;-74
2023/10/08 09:46:20;;;;;;;6.88;1.30;;;14.20;99.90;;;;;;5096299;28;20055;-74
2023/10/08 09:49:08;;;;;;;6.80;1.95;;;14.20;99.90;;;;;;5110756;28;20039;-74
2023/10/08 09:51:54;;;;;;;6.53;1.48;;;14.40;99.90;;;;;;5067672;28;20044;-75
2023/10/08 09:54:49;;;;;;;6.15;1.13;;;14.50;99.90;;;;;;5066021;28;20480;-75
2023/10/08 09:57:35;;;;;;;5.78;1.45;;;14.50;99.90;;;;;;5098659;28;20055;-75
2023/10/08 10:00:30;;;;;;;5.10;1.05;;;14.50;99.90;;;;;;5088501;28;20035;-74
2023/10/08 10:03:18;;;;;;;7.05;1.30;;;14.70;99.90;;;;;;5070884;28;20035;-75
2023/10/08 10:06:09;;;;;;;7.95;1.40;;;14.90;99.90;;;;;;5070463;28;20050;-74
2023/10/08 10:08:58;;;;;;;5.93;1.20;;;15.10;99.90;;;;;;5088625;28;20054;-74
2023/10/08 10:11:51;;;;;;;9.85;1.65;;;15.20;99.90;;;;;;5081880;28;20044;-74
2023/10/08 10:14:47;;;;;;;5.20;1.25;;;15.00;99.90;;;;;;5087815;28;20043;-74
2023/10/08 10:17:33;;;;;;;7.38;1.52;;;14.90;99.90;;;;;;5094395;28;20039;-77
2023/10/08 10:20:20;;;;;;;13.05;1.88;;;15.20;99.90;;;;;;5085352;28;20143;-77
2023/10/08 10:23:42;;;;;;;5.90;1.30;;;15.40;99.90;;;;;;5068021;28;20040;-77
2023/10/08 10:26:33;;;;;;;5.88;1.40;;;15.70;99.90;;;;;;5039177;28;20041;-77
2023/10/08 10:29:21;;;;;;;11.45;1.30;;;15.90;99.90;;;;;;5061638;28;20060;-77
2023/10/08 10:32:07;;;;;;;7.28;1.33;;;15.80;99.10;;;;;;5095705;28;20031;-77
2023/10/08 10:34:53;;;;;;;7.43;1.67;;;15.80;99.20;;;;;;5080148;28;20720;-77
2023/10/08 10:37:42;;;;;;;5.78;1.50;;;16.00;99.10;;;;;;5082222;28;20043;-77
2023/10/08 10:40:39;;;;;;;6.32;1.20;;;16.20;98.70;;;;;;5069577;28;20516;-77
2023/10/08 10:43:33;;;;;;;4.60;1.17;;;16.40;98.50;;;;;;5085833;28;20039;-78
2023/10/08 10:46:31;;;;;;;5.32;1.48;;;16.90;99.90;;;;;;5088131;28;20368;-78
2023/10/08 10:52:52;;;;;;;9.90;1.88;;;17.60;99.00;;;;;;5088942;28;19912;-79
2023/10/08 10:58:12;;;;;;;7.28;1.40;;;17.90;95.40;;;;;;5091116;28;20059;-79
2023/10/08 11:00:59;;;;;;;5.85;1.75;;;18.20;95.10;;;;;;5082736;28;20036;-79
2023/10/08 11:03:47;;;;;;;8.50;1.48;;;18.40;96.10;;;;;;5065359;28;20532;-78
2023/10/08 11:06:37;;;;;;;;;;;17.90;96.00;;;;;;5073210;28;20468;-78
2023/10/08 11:09:35;;;;;;;4.88;1.48;;;17.60;95.30;;;;;;5081622;28;19943;-78
2023/10/08 11:12:32;;;;;;;6.30;1.30;;;17.70;97.10;;;;;;5058211;28;20062;-79
2023/10/08 11:15:18;;;;;;;7.55;1.70;;;18.10;97.70;;;;;;5070835;28;20035;-79
2023/10/08 11:18:08;;;;;;;7.68;1.48;;;18.60;96.60;;;;;;5058265;28;20058;-79
2023/10/08 11:21:13;;;;;;;5.75;1.38;;;18.70;95.90;;;;;;5062405;28;20080;-78
2023/10/08 11:24:01;;;;;;;6.10;1.33;;;18.50;94.60;;;;;;5066614;28;20044;-78
2023/10/08 11:27:02;;;;;;;7.28;1.40;;;18.30;95.20;;;;;;5089511;28;20038;-78
2023/10/08 11:29:53;;;;;;;4.93;1.42;;;18.10;94.90;;;;;;5068374;28;20036;-78
2023/10/08 11:32:41;;;;;;;5.32;1.48;;;18.00;95.90;;;;;;5062362;28;20435;-78
2023/10/08 11:35:33;;;;;;;4.78;1.58;;;17.90;94.70;;;;;;5073006;28;20036;-77
2023/10/08 11:38:22;;;;;;;3.97;1.50;;;17.70;94.80;;;;;;5072725;28;20047;-78
2023/10/08 11:41:27;;;;;;;5.10;1.52;;;17.60;94.80;;;;;;5088610;28;20485;-77
2023/10/08 11:44:13;;;;;;;5.00;1.48;;;17.60;95.10;;;;;;5082802;28;20131;-77
2023/10/08 11:47:10;;;;;;;5.57;1.38;;;17.60;93.60;;;;;;5083802;28;20055;-77
2023/10/08 11:50:09;;;;;;;4.57;1.30;;;17.80;93.80;;;;;;5088774;28;20360;-78
2023/10/08 11:53:02;;;;;;;7.93;2.20;;;17.60;93.30;;;;;;5070235;28;20036;-77
2023/10/08 11:55:48;;;;;;;7.28;1.70;;;17.50;94.10;;;;;;5079945;28;20031;-77
2023/10/08 11:58:37;;;;;;;8.48;1.85;;;17.20;94.00;;;;;;5088309;28;20039;-77
2023/10/08 12:01:27;;;;;;;6.68;1.38;;;17.00;93.90;;;;;;5088735;28;20370;-76
2023/10/08 12:04:15;;;;;;;3.40;1.27;;;16.60;93.80;;;;;;5082179;28;20494;-78
2023/10/08 12:07:07;;;;;;;3.42;1.52;;;17.10;95.10;;;;;;5082797;28;20046;-78
2023/10/08 12:09:54;;;;;;;5.65;2.30;;;17.60;93.90;;;;;;5091684;28;20044;-78
2023/10/08 12:12:40;;;;;;;6.28;1.40;;;17.70;93.30;;;;;;5094368;28;20108;-77
2023/10/08 12:15:38;;;;;;;5.30;1.50;;;17.90;93.00;;;;;;5080615;28;20040;-78
2023/10/08 12:18:27;;;;;;;;;;;18.30;92.80;;;;;;5088573;28;20108;-78
2023/10/08 12:21:15;;;;;;;8.30;1.67;;;18.20;92.70;;;;;;5092740;28;20328;-78
2023/10/08 12:24:05;;;;;;;5.43;1.48;;;18.20;91.60;;;;;;5074976;28;20039;-78
2023/10/08 12:26:51;;;;;;;5.75;1.63;;;18.00;91.70;;;;;;5079664;28;20035;-77
2023/10/08 12:29:38;;;;;;;6.60;1.95;;;17.80;92.60;;;;;;5081023;28;20100;-77
2023/10/08 12:32:26;;;;;;;3.63;1.30;;;18.20;92.30;;;;;;5088053;28;20130;-77
2023/10/08 12:35:15;;;;;;;;;;;18.20;92.50;;;;;;5063916;28;20552;-78
2023/10/08 12:38:01;;;;;;;3.63;1.25;;;18.10;93.00;;;;;;5072623;28;20367;-77
2023/10/08 12:40:52;;;;;;;6.10;1.50;;;18.70;91.60;;;;;;5076915;28;20099;-77
2023/10/08 12:43:52;;;;;;;4.95;1.48;;;19.20;91.80;;;;;;5072584;28;20038;-78
2023/10/08 12:46:38;;;;;;;6.72;1.75;;;20.00;92.60;;;;;;5072284;28;20094;-78
2023/10/08 12:49:25;;;;;;;6.40;1.35;;;20.40;91.60;;;;;;5089902;28;20050;-78
2023/10/08 12:52:14;;;;;;;6.27;1.90;;;21.10;92.00;;;;;;5070577;28;20578;-78
2023/10/08 12:55:03;;;;;;;8.05;1.70;;;21.50;88.30;;;;;;5067494;28;20051;-78
2023/10/08 12:58:05;;;;;;;7.50;1.48;;;21.10;82.50;;;;;;5066388;28;20055;-77
2023/10/08 13:00:57;;;;;;;7.03;2.08;;;21.20;82.40;;;;;;5066782;28;20062;-77
2023/10/08 13:03:47;;;;;;;7.93;1.50;;;21.90;87.80;;;;;;5093069;28;20035;-77
2023/10/08 13:06:37;;;;;;;6.85;1.60;;;22.30;86.00;;;;;;5065505;28;20035;-77
2023/10/08 13:09:24;;;;;;;5.60;1.60;;;22.50;85.10;;;;;;5076345;28;20043;-77
2023/10/08 13:12:10;;;;;;;5.78;1.25;;;22.30;79.40;;;;;;5091753;28;20118;-77
2023/10/08 13:14:56;;;;;;;5.63;1.60;;;22.00;78.60;;;;;;5083276;28;20093;-75
2023/10/08 13:17:42;;;;;;;3.58;1.20;;;22.10;81.60;;;;;;5072916;28;20048;-77
2023/10/08 13:20:33;;;;;;;5.32;1.45;;;22.00;80.20;;;;;;5077392;28;20542;-77
2023/10/08 13:23:20;;;;;;;5.72;1.63;;;21.80;80.50;;;;;;5086488;28;20118;-78
2023/10/08 13:26:07;;;;;;;4.40;1.40;;;21.60;80.80;;;;;;5070532;28;20035;-78
2023/10/08 13:28:54;;;;;;;6.10;1.83;;;20.60;79.10;;;;;;5064009;28;20073;-78
2023/10/08 13:31:40;;;;;;;3.10;1.47;;;20.50;81.40;;;;;;5078956;28;20126;-77
2023/10/08 13:34:26;;;;;;;7.40;1.70;;;20.40;82.10;;;;;;5096724;28;20619;-78
2023/10/08 13:37:14;;;;;;;5.45;1.60;;;19.70;81.60;;;;;;5107207;28;20040;-77
2023/10/08 13:40:00;;;;;;;;;;;19.50;84.60;;;;;;5094410;28;20046;-78
2023/10/08 13:42:48;;;;;;;5.55;1.60;;;19.50;86.80;;;;;;5088441;28;19919;-78
2023/10/08 13:45:37;;;;;;;3.80;1.02;;;19.50;87.30;;;;;;5079605;28;20058;-78
2023/10/08 13:48:24;;;;;;;7.85;1.58;;;19.30;87.70;;;;;;5068961;28;20035;-78
2023/10/08 13:51:20;;;;;;;7.97;1.60;;;19.10;87.50;;;;;;5076233;28;20052;-77
2023/10/08 13:54:06;;;;;;;6.57;1.50;;;18.80;87.80;;;;;;5098025;28;20124;-77
2023/10/08 13:56:52;;;;;;;6.68;1.40;;;18.80;88.20;;;;;;5082335;28;20035;-77
2023/10/08 13:59:38;;;;;;;6.50;1.33;;;18.80;87.50;;;;;;5082259;28;20040;-76
2023/10/08 14:02:25;;;;;;;5.25;1.33;;;18.50;87.90;;;;;;5096142;28;20514;-76
2023/10/08 14:05:15;;;;;;;9.30;2.10;;;18.20;88.80;;;;;;5071871;28;20035;-76
2023/10/08 14:08:02;;;;;;;9.93;1.40;;;18.10;90.00;;;;;;5085089;28;20103;-76
2023/10/08 14:10:51;;;;;;;7.15;1.40;;;17.90;89.80;;;;;;5065554;28;20039;-76
2023/10/08 14:13:42;;;;;;;5.60;1.60;;;17.80;90.30;;;;;;5071486;28;20044;-76
2023/10/08 14:16:28;;;;;;;5.95;1.60;;;17.80;90.60;;;;;;5066510;28;20035;-76
2023/10/08 14:19:14;;;;;;;8.07;1.30;;;17.70;90.80;;;;;;5095033;28;20043;-73
2023/10/08 14:22:03;;;;;;;5.95;1.80;;;17.60;90.30;;;;;;5065042;28;20031;-73
2023/10/08 14:24:58;;;;;;;6.65;1.75;;;17.40;90.60;;;;;;5079899;28;20425;-73
2023/10/08 14:27:51;;;;;;;5.20;1.48;;;17.40;90.60;;;;;;5075475;28;20040;-73
2023/10/08 14:30:41;;;;;;;4.43;1.10;;;17.30;90.90;;;;;;5076600;28;20155;-73
2023/10/08 14:33:31;;;;;;;7.03;1.63;;;17.30;91.40;;;;;;5068439;28;20043;-73
2023/10/08 14:45:34;;;;;;;4.45;1.23;;;17.10;92.80;;;;;;5081850;28;20425;-75
2023/10/08 14:48:22;;;;;;;9.23;1.80;;;16.90;92.20;;;;;;5084840;28;20191;-75
2023/10/08 14:51:08;;;;;;;4.77;1.47;;;16.70;92.30;;;;;;5079967;28;20044;-76
2023/10/08 14:53:54;;;;;;;7.22;1.50;;;16.80;92.50;;;;;;5094181;28;20040;-76
2023/10/08 14:56:41;;;;;;;6.53;1.60;;;16.80;92.10;;;;;;5107831;28;20125;-76
2023/10/08 14:59:28;;;;;;;6.28;1.45;;;16.80;92.00;;;;;;5074846;28;20075;-76
2023/10/08 15:02:14;;;;;;;4.35;1.17;;;16.80;91.70;;;;;;5070027;28;20035;-73
2023/10/08 15:05:05;;;;;;;7.70;1.67;;;16.70;91.90;;;;;;5087410;28;20039;-73
2023/10/08 15:07:51;;;;;;;6.60;1.50;;;16.60;92.00;;;;;;5085578;28;20124;-73
2023/10/08 15:10:37;;;;;;;11.55;1.90;;;16.70;92.50;;;;;;5067273;28;20040;-73
2023/10/08 15:13:25;;;;;;;5.70;1.60;;;16.70;92.80;;;;;;5072078;28;20061;-76
2023/10/08 15:16:12;;;;;;;8.32;2.00;;;16.70;92.90;;;;;;5082220;28;20047;-77
2023/10/08 15:18:58;;;;;;;6.57;1.77;;;16.70;93.30;;;;;;5075644;28;20108;-76
2023/10/08 15:21:52;;;;;;;5.97;1.60;;;16.70;93.60;;;;;;5070937;28;20051;-75
2023/10/08 15:24:39;;;;;;;7.70;1.60;;;16.70;94.00;;;;;;5068398;28;20495;-73
2023/10/08 15:27:25;;;;;;;9.02;1.85;;;16.60;94.10;;;;;;5061785;28;20054;-75
2023/10/08 15:30:14;;;;;;;7.78;1.88;;;16.60;94.20;;;;;;5065245;28;20035;-75
2023/10/08 15:33:01;;;;;;;12.88;1.73;;;16.60;94.10;;;;;;5068419;28;20522;-76
2023/10/08 15:35:47;;;;;;;8.15;1.75;;;16.50;94.70;;;;;;5091850;28;20072;-76
2023/10/08 15:38:33;;;;;;;9.10;2.38;;;16.50;94.70;;;;;;5059561;28;20085;-76
2023/10/08 15:41:19;;;;;;;5.80;1.70;;;16.40;94.90;;;;;;5067977;28;20047;-75
2023/10/08 15:44:06;;;;;;;6.40;2.13;;;16.40;95.30;;;;;;5084791;28;20486;-75
2023/10/08 15:46:52;;;;;;;9.93;2.25;;;16.30;95.10;;;;;;5080058;28;20058;-75
2023/10/08 15:49:38;;;;;;;5.22;1.60;;;16.20;95.30;;;;;;5080663;28;20054;-75
2023/10/08 15:52:24;;;;;;;6.85;1.60;;;16.20;95.90;;;;;;5074429;28;20088;-75